Main page
METAR-TAF:

METAR-TAF

Airports :

Norwich Airport

Norwich, England

latitude: 52-38N, longitude: 001-18E, elevation: 14 m

Current weather observation

The report was made 33 minutes ago, at 22:20 UTC
Wind 6 kt from the East/Southeast
Temperature 7°C
Humidity 87%
Pressure 1001 hPa
Visibility 10 km or more

METAR: EGSH 212220Z AUTO 12006KT 9999 OVC015/// 07/05 Q1001

Time: 22:53 (22:53 UTC)

Forecast

The report was made 2 hours and 58 minutes ago, at 19:55 UTC
Forecast valid from 21 at 21 UTC to 21 at 24 UTC
Wind 8 kt from the East
Visibility 10 km or more
Broken clouds at a height of 2500 ft
Temporary
from 21 at 21 UTC to 21 at 24 UTC
Visibility: 6000 m
Broken clouds at a height of 900 ft
Probability 30% :
Temporary
from 21 at 21 UTC to 21 at 24 UTC
Visibility: 4000 m
mist

TAF: EGSH 211955Z 2121/2124 10008KT 9999 BKN025 TEMPO 2121/2124 6000 BKN009 PROB30 TEMPO 2121/2124 4000 BR

Weather observations and forecasts of more than 4000 airports (METAR and TAF reports).

The available stations are represented by yellow and red dots on the map.

Hover mouse over dot to see the name of the station.

Then click to see weather observations and forecasts.

To change the map : click on the green buttons with a black cross to zoom in, on the green button with a dash to zoom out, or on the green arrows for adjacent maps.


METAR-TAF: